sensor_id;sensor_type;location;lat;lon;timestamp;P1;durP1;ratioP1;P2;durP2;ratioP2
8046;SDS011;74083;42.516;23.358;2024-03-25T00:02:26;1.00;;;1.00;;
8046;SDS011;74083;42.516;23.358;2024-03-25T00:05:10;1.00;;;1.00;;
8046;SDS011;74083;42.516;23.358;2024-03-25T00:07:59;1.00;;;1.00;;
8046;SDS011;74083;42.516;23.358;2024-03-25T00:10:43;0.93;;;0.93;;
8046;SDS011;74083;42.516;23.358;2024-03-25T00:13:29;1.00;;;0.90;;
8046;SDS011;74083;42.516;23.358;2024-03-25T00:16:13;0.93;;;0.93;;
8046;SDS011;74083;42.516;23.358;2024-03-25T00:19:00;0.90;;;0.90;;
8046;SDS011;74083;42.516;23.358;2024-03-25T00:21:45;0.80;;;0.80;;
8046;SDS011;74083;42.516;23.358;2024-03-25T00:24:30;1.27;;;0.90;;
8046;SDS011;74083;42.516;23.358;2024-03-25T00:27:16;0.90;;;0.90;;
8046;SDS011;74083;42.516;23.358;2024-03-25T00:30:02;0.87;;;0.87;;
8046;SDS011;74083;42.516;23.358;2024-03-25T00:32:48;0.90;;;0.90;;
8046;SDS011;74083;42.516;23.358;2024-03-25T00:35:36;0.80;;;0.80;;
8046;SDS011;74083;42.516;23.358;2024-03-25T00:38:20;0.90;;;0.90;;
8046;SDS011;74083;42.516;23.358;2024-03-25T00:41:06;0.90;;;0.90;;
8046;SDS011;74083;42.516;23.358;2024-03-25T00:43:50;0.80;;;0.80;;
8046;SDS011;74083;42.516;23.358;2024-03-25T00:46:36;0.87;;;0.87;;
8046;SDS011;74083;42.516;23.358;2024-03-25T00:49:20;0.90;;;0.90;;
8046;SDS011;74083;42.516;23.358;2024-03-25T00:52:07;0.80;;;0.80;;
8046;SDS011;74083;42.516;23.358;2024-03-25T00:54:52;0.80;;;0.80;;
8046;SDS011;74083;42.516;23.358;2024-03-25T00:57:37;0.83;;;0.83;;
8046;SDS011;74083;42.516;23.358;2024-03-25T01:00:22;0.80;;;0.80;;
8046;SDS011;74083;42.516;23.358;2024-03-25T01:03:09;0.80;;;0.80;;
8046;SDS011;74083;42.516;23.358;2024-03-25T01:05:54;0.80;;;0.80;;
8046;SDS011;74083;42.516;23.358;2024-03-25T01:08:43;0.80;;;0.80;;
8046;SDS011;74083;42.516;23.358;2024-03-25T01:11:27;0.80;;;0.80;;
8046;SDS011;74083;42.516;23.358;2024-03-25T01:14:12;0.90;;;0.90;;
8046;SDS011;74083;42.516;23.358;2024-03-25T01:16:57;0.90;;;0.90;;
8046;SDS011;74083;42.516;23.358;2024-03-25T01:19:43;0.80;;;0.80;;
8046;SDS011;74083;42.516;23.358;2024-03-25T01:22:27;1.00;;;1.00;;
8046;SDS011;74083;42.516;23.358;2024-03-25T01:25:14;0.90;;;0.90;;
8046;SDS011;74083;42.516;23.358;2024-03-25T01:27:58;0.90;;;0.90;;
8046;SDS011;74083;42.516;23.358;2024-03-25T01:30:44;0.80;;;0.80;;
8046;SDS011;74083;42.516;23.358;2024-03-25T01:33:29;0.80;;;0.80;;
8046;SDS011;74083;42.516;23.358;2024-03-25T01:36:14;0.80;;;0.80;;
8046;SDS011;74083;42.516;23.358;2024-03-25T01:39:01;0.90;;;0.90;;
8046;SDS011;74083;42.516;23.358;2024-03-25T01:41:50;1.00;;;1.00;;
8046;SDS011;74083;42.516;23.358;2024-03-25T01:44:34;0.90;;;0.90;;
8046;SDS011;74083;42.516;23.358;2024-03-25T01:47:21;1.00;;;1.00;;
8046;SDS011;74083;42.516;23.358;2024-03-25T01:50:06;1.10;;;1.10;;
8046;SDS011;74083;42.516;23.358;2024-03-25T01:52:52;1.20;;;1.20;;
8046;SDS011;74083;42.516;23.358;2024-03-25T01:55:37;1.20;;;1.20;;
8046;SDS011;74083;42.516;23.358;2024-03-25T01:58:25;1.20;;;1.20;;
8046;SDS011;74083;42.516;23.358;2024-03-25T02:01:09;2.00;;;1.33;;
8046;SDS011;74083;42.516;23.358;2024-03-25T02:03:57;1.10;;;1.10;;
8046;SDS011;74083;42.516;23.358;2024-03-25T02:06:42;1.00;;;1.00;;
8046;SDS011;74083;42.516;23.358;2024-03-25T02:09:28;1.10;;;1.10;;
8046;SDS011;74083;42.516;23.358;2024-03-25T02:12:13;1.10;;;1.10;;
8046;SDS011;74083;42.516;23.358;2024-03-25T02:15:00;1.07;;;1.07;;
8046;SDS011;74083;42.516;23.358;2024-03-25T02:17:45;1.10;;;1.10;;
8046;SDS011;74083;42.516;23.358;2024-03-25T02:20:30;1.03;;;1.03;;
8046;SDS011;74083;42.516;23.358;2024-03-25T02:23:15;1.10;;;1.10;;
8046;SDS011;74083;42.516;23.358;2024-03-25T02:26:02;0.93;;;0.93;;
8046;SDS011;74083;42.516;23.358;2024-03-25T02:28:46;1.00;;;1.00;;
8046;SDS011;74083;42.516;23.358;2024-03-25T02:31:32;1.10;;;1.10;;
8046;SDS011;74083;42.516;23.358;2024-03-25T02:34:18;1.10;;;1.10;;
8046;SDS011;74083;42.516;23.358;2024-03-25T02:37:02;1.27;;;1.27;;
8046;SDS011;74083;42.516;23.358;2024-03-25T02:39:48;1.20;;;1.20;;
8046;SDS011;74083;42.516;23.358;2024-03-25T02:42:35;1.10;;;1.10;;
8046;SDS011;74083;42.516;23.358;2024-03-25T02:45:20;1.13;;;1.10;;
8046;SDS011;74083;42.516;23.358;2024-03-25T02:48:05;1.20;;;1.20;;
8046;SDS011;74083;42.516;23.358;2024-03-25T02:50:51;1.10;;;1.10;;
8046;SDS011;74083;42.516;23.358;2024-03-25T02:53:35;1.30;;;1.30;;
8046;SDS011;74083;42.516;23.358;2024-03-25T02:56:21;1.30;;;1.30;;
8046;SDS011;74083;42.516;23.358;2024-03-25T02:59:07;1.23;;;1.23;;
8046;SDS011;74083;42.516;23.358;2024-03-25T03:01:53;1.20;;;1.20;;
8046;SDS011;74083;42.516;23.358;2024-03-25T03:04:37;1.60;;;1.50;;
8046;SDS011;74083;42.516;23.358;2024-03-25T03:07:23;1.53;;;1.50;;
8046;SDS011;74083;42.516;23.358;2024-03-25T03:10:07;1.40;;;1.40;;
8046;SDS011;74083;42.516;23.358;2024-03-25T03:12:53;1.40;;;1.40;;
8046;SDS011;74083;42.516;23.358;2024-03-25T03:15:43;1.30;;;1.30;;
8046;SDS011;74083;42.516;23.358;2024-03-25T03:18:28;1.30;;;1.30;;
8046;SDS011;74083;42.516;23.358;2024-03-25T03:21:13;1.30;;;1.30;;
8046;SDS011;74083;42.516;23.358;2024-03-25T03:23:58;1.47;;;1.40;;
8046;SDS011;74083;42.516;23.358;2024-03-25T03:26:43;1.27;;;1.20;;
8046;SDS011;74083;42.516;23.358;2024-03-25T03:29:28;1.10;;;1.10;;
8046;SDS011;74083;42.516;23.358;2024-03-25T03:32:15;1.23;;;1.20;;
8046;SDS011;74083;42.516;23.358;2024-03-25T03:35:01;1.20;;;1.20;;
8046;SDS011;74083;42.516;23.358;2024-03-25T03:37:45;1.10;;;1.10;;
8046;SDS011;74083;42.516;23.358;2024-03-25T03:40:32;1.13;;;1.13;;
8046;SDS011;74083;42.516;23.358;2024-03-25T03:43:16;1.10;;;1.10;;
8046;SDS011;74083;42.516;23.358;2024-03-25T03:46:01;1.27;;;1.27;;
8046;SDS011;74083;42.516;23.358;2024-03-25T03:48:48;1.27;;;1.27;;
8046;SDS011;74083;42.516;23.358;2024-03-25T03:51:33;1.30;;;1.20;;
8046;SDS011;74083;42.516;23.358;2024-03-25T03:54:18;0.93;;;0.93;;
8046;SDS011;74083;42.516;23.358;2024-03-25T03:57:03;1.00;;;1.00;;
8046;SDS011;74083;42.516;23.358;2024-03-25T03:59:49;1.10;;;1.10;;
8046;SDS011;74083;42.516;23.358;2024-03-25T04:02:35;1.10;;;1.10;;
8046;SDS011;74083;42.516;23.358;2024-03-25T04:05:20;1.10;;;1.10;;
8046;SDS011;74083;42.516;23.358;2024-03-25T04:08:06;1.20;;;1.20;;
8046;SDS011;74083;42.516;23.358;2024-03-25T04:10:52;1.10;;;1.10;;
8046;SDS011;74083;42.516;23.358;2024-03-25T04:13:38;1.10;;;1.10;;
8046;SDS011;74083;42.516;23.358;2024-03-25T04:16:22;1.10;;;1.10;;
8046;SDS011;74083;42.516;23.358;2024-03-25T04:19:07;1.20;;;1.20;;
8046;SDS011;74083;42.516;23.358;2024-03-25T04:21:54;1.10;;;1.10;;
8046;SDS011;74083;42.516;23.358;2024-03-25T04:24:39;1.20;;;1.20;;
8046;SDS011;74083;42.516;23.358;2024-03-25T04:27:24;1.20;;;1.20;;
8046;SDS011;74083;42.516;23.358;2024-03-25T04:30:10;1.20;;;1.20;;
8046;SDS011;74083;42.516;23.358;2024-03-25T04:32:56;1.10;;;1.10;;
8046;SDS011;74083;42.516;23.358;2024-03-25T04:35:41;1.03;;;1.03;;
8046;SDS011;74083;42.516;23.358;2024-03-25T04:38:27;1.20;;;1.20;;
8046;SDS011;74083;42.516;23.358;2024-03-25T04:41:12;1.17;;;1.17;;
8046;SDS011;74083;42.516;23.358;2024-03-25T04:43:56;1.13;;;1.13;;
8046;SDS011;74083;42.516;23.358;2024-03-25T04:46:41;1.80;;;1.00;;
8046;SDS011;74083;42.516;23.358;2024-03-25T04:49:25;1.00;;;1.00;;
8046;SDS011;74083;42.516;23.358;2024-03-25T04:52:10;1.03;;;1.03;;
8046;SDS011;74083;42.516;23.358;2024-03-25T04:54:57;1.10;;;1.10;;
8046;SDS011;74083;42.516;23.358;2024-03-25T04:57:42;1.10;;;1.10;;
8046;SDS011;74083;42.516;23.358;2024-03-25T05:00:27;1.10;;;1.10;;
8046;SDS011;74083;42.516;23.358;2024-03-25T05:03:11;1.20;;;1.20;;
8046;SDS011;74083;42.516;23.358;2024-03-25T05:05:55;1.20;;;1.10;;
8046;SDS011;74083;42.516;23.358;2024-03-25T05:08:40;1.30;;;1.20;;
8046;SDS011;74083;42.516;23.358;2024-03-25T05:11:26;1.10;;;1.10;;
8046;SDS011;74083;42.516;23.358;2024-03-25T05:14:11;1.57;;;1.47;;
8046;SDS011;74083;42.516;23.358;2024-03-25T05:16:55;1.83;;;1.73;;
8046;SDS011;74083;42.516;23.358;2024-03-25T05:19:40;2.00;;;1.90;;
8046;SDS011;74083;42.516;23.358;2024-03-25T05:22:24;2.50;;;2.30;;
8046;SDS011;74083;42.516;23.358;2024-03-25T05:25:09;2.80;;;2.60;;
8046;SDS011;74083;42.516;23.358;2024-03-25T05:27:54;3.30;;;2.70;;
8046;SDS011;74083;42.516;23.358;2024-03-25T05:30:39;3.37;;;3.07;;
8046;SDS011;74083;42.516;23.358;2024-03-25T05:33:24;2.90;;;2.70;;
8046;SDS011;74083;42.516;23.358;2024-03-25T05:36:08;3.20;;;3.00;;
8046;SDS011;74083;42.516;23.358;2024-03-25T05:38:53;3.70;;;3.40;;
8046;SDS011;74083;42.516;23.358;2024-03-25T05:41:37;3.37;;;3.07;;
8046;SDS011;74083;42.516;23.358;2024-03-25T05:44:23;3.30;;;3.00;;
8046;SDS011;74083;42.516;23.358;2024-03-25T05:47:08;4.10;;;3.47;;
8046;SDS011;74083;42.516;23.358;2024-03-25T05:49:52;4.77;;;3.60;;
8046;SDS011;74083;42.516;23.358;2024-03-25T05:52:36;3.93;;;3.63;;
8046;SDS011;74083;42.516;23.358;2024-03-25T05:55:21;3.93;;;3.60;;
8046;SDS011;74083;42.516;23.358;2024-03-25T05:58:05;4.20;;;3.80;;
8046;SDS011;74083;42.516;23.358;2024-03-25T06:00:51;4.17;;;3.77;;
8046;SDS011;74083;42.516;23.358;2024-03-25T06:03:36;4.30;;;3.97;;
8046;SDS011;74083;42.516;23.358;2024-03-25T06:06:21;3.90;;;3.50;;
8046;SDS011;74083;42.516;23.358;2024-03-25T06:09:05;4.23;;;3.83;;
8046;SDS011;74083;42.516;23.358;2024-03-25T06:11:49;5.37;;;4.30;;
8046;SDS011;74083;42.516;23.358;2024-03-25T06:14:34;3.77;;;3.40;;
8046;SDS011;74083;42.516;23.358;2024-03-25T06:17:20;3.50;;;3.20;;
8046;SDS011;74083;42.516;23.358;2024-03-25T06:20:05;3.50;;;3.20;;
8046;SDS011;74083;42.516;23.358;2024-03-25T06:22:50;4.03;;;3.60;;
8046;SDS011;74083;42.516;23.358;2024-03-25T06:25:34;3.17;;;2.97;;
8046;SDS011;74083;42.516;23.358;2024-03-25T06:28:19;2.80;;;2.60;;
8046;SDS011;74083;42.516;23.358;2024-03-25T06:31:04;2.80;;;2.53;;
8046;SDS011;74083;42.516;23.358;2024-03-25T06:34:08;2.93;;;2.73;;
8046;SDS011;74083;42.516;23.358;2024-03-25T06:36:58;3.27;;;2.37;;
8046;SDS011;74083;42.516;23.358;2024-03-25T06:39:43;2.80;;;2.60;;
8046;SDS011;74083;42.516;23.358;2024-03-25T06:42:27;2.73;;;2.50;;
8046;SDS011;74083;42.516;23.358;2024-03-25T06:45:12;3.27;;;3.00;;
8046;SDS011;74083;42.516;23.358;2024-03-25T06:47:56;2.90;;;2.70;;
8046;SDS011;74083;42.516;23.358;2024-03-25T06:50:43;3.30;;;3.00;;
8046;SDS011;74083;42.516;23.358;2024-03-25T06:53:36;2.90;;;2.70;;
8046;SDS011;74083;42.516;23.358;2024-03-25T06:56:21;2.63;;;2.43;;
8046;SDS011;74083;42.516;23.358;2024-03-25T06:59:05;2.60;;;2.40;;
8046;SDS011;74083;42.516;23.358;2024-03-25T07:01:50;2.70;;;2.50;;
8046;SDS011;74083;42.516;23.358;2024-03-25T07:04:34;2.63;;;2.43;;
8046;SDS011;74083;42.516;23.358;2024-03-25T07:07:20;2.77;;;2.57;;
8046;SDS011;74083;42.516;23.358;2024-03-25T07:10:05;2.57;;;2.37;;
8046;SDS011;74083;42.516;23.358;2024-03-25T07:12:50;2.30;;;2.10;;
8046;SDS011;74083;42.516;23.358;2024-03-25T07:15:35;3.60;;;2.50;;
8046;SDS011;74083;42.516;23.358;2024-03-25T07:18:19;2.90;;;2.70;;
8046;SDS011;74083;42.516;23.358;2024-03-25T07:21:04;2.60;;;2.40;;
8046;SDS011;74083;42.516;23.358;2024-03-25T07:23:49;2.67;;;2.47;;
8046;SDS011;74083;42.516;23.358;2024-03-25T07:26:34;2.20;;;2.03;;
8046;SDS011;74083;42.516;23.358;2024-03-25T07:29:19;2.77;;;2.57;;
8046;SDS011;74083;42.516;23.358;2024-03-25T07:32:03;2.60;;;2.40;;
8046;SDS011;74083;42.516;23.358;2024-03-25T07:34:48;3.07;;;2.47;;
8046;SDS011;74083;42.516;23.358;2024-03-25T07:37:32;2.60;;;2.40;;
8046;SDS011;74083;42.516;23.358;2024-03-25T07:40:19;2.63;;;2.43;;
8046;SDS011;74083;42.516;23.358;2024-03-25T07:43:04;2.60;;;2.10;;
8046;SDS011;74083;42.516;23.358;2024-03-25T07:45:48;2.30;;;2.20;;
8046;SDS011;74083;42.516;23.358;2024-03-25T07:48:33;2.40;;;2.20;;
8046;SDS011;74083;42.516;23.358;2024-03-25T07:51:17;2.20;;;2.10;;
8046;SDS011;74083;42.516;23.358;2024-03-25T07:54:01;2.60;;;2.40;;
8046;SDS011;74083;42.516;23.358;2024-03-25T07:56:48;2.47;;;2.27;;
8046;SDS011;74083;42.516;23.358;2024-03-25T07:59:32;2.53;;;2.33;;
8046;SDS011;74083;42.516;23.358;2024-03-25T08:02:17;2.30;;;2.10;;
8046;SDS011;74083;42.516;23.358;2024-03-25T08:05:01;2.23;;;2.10;;
8046;SDS011;74083;42.516;23.358;2024-03-25T08:07:45;2.00;;;1.90;;
8046;SDS011;74083;42.516;23.358;2024-03-25T08:10:30;1.77;;;1.67;;
8046;SDS011;74083;42.516;23.358;2024-03-25T08:13:16;2.03;;;1.93;;
8046;SDS011;74083;42.516;23.358;2024-03-25T08:16:01;1.70;;;1.60;;
8046;SDS011;74083;42.516;23.358;2024-03-25T08:18:46;1.80;;;1.70;;
8046;SDS011;74083;42.516;23.358;2024-03-25T08:21:30;2.60;;;1.60;;
8046;SDS011;74083;42.516;23.358;2024-03-25T08:24:15;1.73;;;1.63;;
8046;SDS011;74083;42.516;23.358;2024-03-25T08:26:59;1.70;;;1.60;;
8046;SDS011;74083;42.516;23.358;2024-03-25T08:29:45;1.70;;;1.60;;
8046;SDS011;74083;42.516;23.358;2024-03-25T08:32:29;1.50;;;1.40;;
8046;SDS011;74083;42.516;23.358;2024-03-25T08:35:14;1.50;;;1.40;;
8046;SDS011;74083;42.516;23.358;2024-03-25T08:37:58;1.87;;;1.63;;
8046;SDS011;74083;42.516;23.358;2024-03-25T08:40:43;1.60;;;1.50;;
8046;SDS011;74083;42.516;23.358;2024-03-25T08:43:27;1.50;;;1.40;;
8046;SDS011;74083;42.516;23.358;2024-03-25T08:46:13;1.50;;;1.40;;
8046;SDS011;74083;42.516;23.358;2024-03-25T08:48:58;1.40;;;1.40;;
8046;SDS011;74083;42.516;23.358;2024-03-25T08:51:42;1.30;;;1.30;;
8046;SDS011;74083;42.516;23.358;2024-03-25T08:54:26;1.70;;;1.60;;
8046;SDS011;74083;42.516;23.358;2024-03-25T08:57:11;1.33;;;1.33;;
8046;SDS011;74083;42.516;23.358;2024-03-25T08:59:55;1.50;;;1.40;;
8046;SDS011;74083;42.516;23.358;2024-03-25T09:02:41;1.77;;;1.47;;
8046;SDS011;74083;42.516;23.358;2024-03-25T09:05:26;1.60;;;1.50;;
8046;SDS011;74083;42.516;23.358;2024-03-25T09:08:10;1.63;;;1.53;;
8046;SDS011;74083;42.516;23.358;2024-03-25T09:10:55;2.37;;;1.60;;
8046;SDS011;74083;42.516;23.358;2024-03-25T09:13:48;1.63;;;1.53;;
8046;SDS011;74083;42.516;23.358;2024-03-25T09:16:33;1.70;;;1.60;;
8046;SDS011;74083;42.516;23.358;2024-03-25T09:19:19;1.60;;;1.50;;
8046;SDS011;74083;42.516;23.358;2024-03-25T09:22:03;1.87;;;1.77;;
8046;SDS011;74083;42.516;23.358;2024-03-25T09:24:48;1.90;;;1.80;;
8046;SDS011;74083;42.516;23.358;2024-03-25T09:27:33;1.90;;;1.80;;
8046;SDS011;74083;42.516;23.358;2024-03-25T09:30:17;1.93;;;1.83;;
8046;SDS011;74083;42.516;23.358;2024-03-25T09:33:02;1.77;;;1.67;;
8046;SDS011;74083;42.516;23.358;2024-03-25T09:35:48;1.93;;;1.77;;
8046;SDS011;74083;42.516;23.358;2024-03-25T09:38:33;1.90;;;1.80;;
8046;SDS011;74083;42.516;23.358;2024-03-25T09:41:18;1.67;;;1.57;;
8046;SDS011;74083;42.516;23.358;2024-03-25T09:44:02;1.70;;;1.60;;
8046;SDS011;74083;42.516;23.358;2024-03-25T09:46:49;1.50;;;1.40;;
8046;SDS011;74083;42.516;23.358;2024-03-25T09:49:33;1.80;;;1.70;;
8046;SDS011;74083;42.516;23.358;2024-03-25T09:52:21;2.50;;;1.70;;
8046;SDS011;74083;42.516;23.358;2024-03-25T09:55:06;1.87;;;1.77;;
8046;SDS011;74083;42.516;23.358;2024-03-25T09:57:51;2.00;;;1.90;;
8046;SDS011;74083;42.516;23.358;2024-03-25T10:00:36;1.90;;;1.80;;
8046;SDS011;74083;42.516;23.358;2024-03-25T10:03:20;1.90;;;1.80;;
8046;SDS011;74083;42.516;23.358;2024-03-25T10:06:05;1.90;;;1.80;;
8046;SDS011;74083;42.516;23.358;2024-03-25T10:08:54;2.20;;;2.10;;
8046;SDS011;74083;42.516;23.358;2024-03-25T10:11:39;1.90;;;1.80;;
8046;SDS011;74083;42.516;23.358;2024-03-25T10:14:24;2.20;;;2.10;;
8046;SDS011;74083;42.516;23.358;2024-03-25T10:17:08;2.07;;;1.97;;
8046;SDS011;74083;42.516;23.358;2024-03-25T10:19:53;1.83;;;1.73;;
8046;SDS011;74083;42.516;23.358;2024-03-25T10:22:40;1.90;;;1.80;;
8046;SDS011;74083;42.516;23.358;2024-03-25T10:25:27;2.23;;;2.07;;
8046;SDS011;74083;42.516;23.358;2024-03-25T10:28:12;2.10;;;2.00;;
8046;SDS011;74083;42.516;23.358;2024-03-25T10:31:02;2.10;;;2.00;;
8046;SDS011;74083;42.516;23.358;2024-03-25T10:33:47;2.10;;;2.00;;
8046;SDS011;74083;42.516;23.358;2024-03-25T10:36:32;2.20;;;2.10;;
8046;SDS011;74083;42.516;23.358;2024-03-25T10:39:17;2.27;;;2.17;;
8046;SDS011;74083;42.516;23.358;2024-03-25T10:42:06;2.63;;;2.43;;
8046;SDS011;74083;42.516;23.358;2024-03-25T10:44:54;2.50;;;2.30;;
8046;SDS011;74083;42.516;23.358;2024-03-25T10:47:39;2.30;;;2.20;;
8046;SDS011;74083;42.516;23.358;2024-03-25T10:50:26;2.00;;;1.90;;
8046;SDS011;74083;42.516;23.358;2024-03-25T10:53:14;2.40;;;2.20;;
8046;SDS011;74083;42.516;23.358;2024-03-25T10:56:01;2.57;;;2.37;;
8046;SDS011;74083;42.516;23.358;2024-03-25T10:58:49;2.20;;;2.10;;
8046;SDS011;74083;42.516;23.358;2024-03-25T11:01:34;2.10;;;2.00;;
8046;SDS011;74083;42.516;23.358;2024-03-25T11:04:19;2.37;;;2.17;;
8046;SDS011;74083;42.516;23.358;2024-03-25T11:07:08;2.30;;;2.20;;
8046;SDS011;74083;42.516;23.358;2024-03-25T11:09:53;2.10;;;2.00;;
8046;SDS011;74083;42.516;23.358;2024-03-25T11:12:49;2.47;;;2.27;;
8046;SDS011;74083;42.516;23.358;2024-03-25T11:15:37;2.40;;;2.30;;
8046;SDS011;74083;42.516;23.358;2024-03-25T11:18:22;2.37;;;2.13;;
8046;SDS011;74083;42.516;23.358;2024-03-25T11:21:08;2.30;;;2.20;;
8046;SDS011;74083;42.516;23.358;2024-03-25T11:23:52;2.60;;;2.40;;
8046;SDS011;74083;42.516;23.358;2024-03-25T11:26:40;2.50;;;2.30;;
8046;SDS011;74083;42.516;23.358;2024-03-25T11:29:25;2.27;;;2.17;;
8046;SDS011;74083;42.516;23.358;2024-03-25T11:32:11;2.20;;;2.10;;
8046;SDS011;74083;42.516;23.358;2024-03-25T11:34:57;2.47;;;2.27;;
8046;SDS011;74083;42.516;23.358;2024-03-25T11:37:43;2.70;;;2.50;;
8046;SDS011;74083;42.516;23.358;2024-03-25T11:40:27;2.83;;;2.63;;
8046;SDS011;74083;42.516;23.358;2024-03-25T11:43:18;2.70;;;2.50;;
8046;SDS011;74083;42.516;23.358;2024-03-25T11:46:03;2.60;;;2.40;;
8046;SDS011;74083;42.516;23.358;2024-03-25T11:48:49;2.80;;;2.60;;
8046;SDS011;74083;42.516;23.358;2024-03-25T11:51:33;2.90;;;2.70;;
8046;SDS011;74083;42.516;23.358;2024-03-25T11:54:18;3.00;;;2.80;;
8046;SDS011;74083;42.516;23.358;2024-03-25T11:57:03;2.70;;;2.50;;
8046;SDS011;74083;42.516;23.358;2024-03-25T11:59:48;2.70;;;2.50;;
8046;SDS011;74083;42.516;23.358;2024-03-25T12:02:32;2.70;;;2.50;;
8046;SDS011;74083;42.516;23.358;2024-03-25T12:05:18;2.63;;;2.43;;
8046;SDS011;74083;42.516;23.358;2024-03-25T12:08:02;2.57;;;2.37;;
8046;SDS011;74083;42.516;23.358;2024-03-25T12:10:47;2.80;;;2.40;;
8046;SDS011;74083;42.516;23.358;2024-03-25T12:13:51;2.53;;;2.33;;
8046;SDS011;74083;42.516;23.358;2024-03-25T12:16:35;2.37;;;2.17;;
8046;SDS011;74083;42.516;23.358;2024-03-25T12:19:20;2.20;;;2.10;;
8046;SDS011;74083;42.516;23.358;2024-03-25T12:22:10;2.50;;;2.40;;
8046;SDS011;74083;42.516;23.358;2024-03-25T12:24:56;2.47;;;2.27;;
8046;SDS011;74083;42.516;23.358;2024-03-25T12:27:45;2.60;;;2.40;;
8046;SDS011;74083;42.516;23.358;2024-03-25T12:30:31;2.53;;;2.33;;
8046;SDS011;74083;42.516;23.358;2024-03-25T12:33:16;4.53;;;2.40;;
8046;SDS011;74083;42.516;23.358;2024-03-25T12:36:00;2.77;;;2.60;;
8046;SDS011;74083;42.516;23.358;2024-03-25T12:38:55;2.20;;;2.10;;
8046;SDS011;74083;42.516;23.358;2024-03-25T12:41:41;2.07;;;1.97;;
8046;SDS011;74083;42.516;23.358;2024-03-25T12:44:25;2.20;;;2.10;;
8046;SDS011;74083;42.516;23.358;2024-03-25T12:47:10;2.33;;;2.10;;
8046;SDS011;74083;42.516;23.358;2024-03-25T12:49:54;2.30;;;2.20;;
8046;SDS011;74083;42.516;23.358;2024-03-25T12:52:38;2.27;;;2.17;;
8046;SDS011;74083;42.516;23.358;2024-03-25T12:55:24;2.30;;;2.20;;
8046;SDS011;74083;42.516;23.358;2024-03-25T12:58:09;2.70;;;2.03;;
8046;SDS011;74083;42.516;23.358;2024-03-25T13:00:54;2.00;;;1.90;;
8046;SDS011;74083;42.516;23.358;2024-03-25T13:03:39;2.10;;;2.00;;
8046;SDS011;74083;42.516;23.358;2024-03-25T13:06:24;2.30;;;2.20;;
8046;SDS011;74083;42.516;23.358;2024-03-25T13:09:09;2.27;;;2.10;;
8046;SDS011;74083;42.516;23.358;2024-03-25T13:11:55;2.20;;;2.10;;
8046;SDS011;74083;42.516;23.358;2024-03-25T13:14:40;1.97;;;1.87;;
8046;SDS011;74083;42.516;23.358;2024-03-25T13:17:24;2.20;;;2.10;;
8046;SDS011;74083;42.516;23.358;2024-03-25T13:20:10;2.10;;;2.00;;
8046;SDS011;74083;42.516;23.358;2024-03-25T13:22:55;2.30;;;2.20;;
8046;SDS011;74083;42.516;23.358;2024-03-25T13:25:40;2.40;;;2.20;;
8046;SDS011;74083;42.516;23.358;2024-03-25T13:28:25;2.13;;;2.03;;
8046;SDS011;74083;42.516;23.358;2024-03-25T13:31:10;2.23;;;2.13;;
8046;SDS011;74083;42.516;23.358;2024-03-25T13:33:55;2.37;;;2.10;;
8046;SDS011;74083;42.516;23.358;2024-03-25T13:36:39;2.30;;;2.20;;
8046;SDS011;74083;42.516;23.358;2024-03-25T13:39:24;2.07;;;1.97;;
8046;SDS011;74083;42.516;23.358;2024-03-25T13:42:08;2.47;;;2.27;;
8046;SDS011;74083;42.516;23.358;2024-03-25T13:44:55;2.50;;;2.30;;
8046;SDS011;74083;42.516;23.358;2024-03-25T13:47:39;2.60;;;2.40;;
8046;SDS011;74083;42.516;23.358;2024-03-25T13:50:24;2.37;;;2.27;;
8046;SDS011;74083;42.516;23.358;2024-03-25T13:53:09;2.30;;;2.10;;
8046;SDS011;74083;42.516;23.358;2024-03-25T13:55:54;2.50;;;2.30;;
8046;SDS011;74083;42.516;23.358;2024-03-25T13:58:39;2.00;;;1.90;;
8046;SDS011;74083;42.516;23.358;2024-03-25T14:01:24;2.23;;;2.07;;
8046;SDS011;74083;42.516;23.358;2024-03-25T14:04:09;2.23;;;2.13;;
8046;SDS011;74083;42.516;23.358;2024-03-25T14:06:54;2.27;;;2.10;;
8046;SDS011;74083;42.516;23.358;2024-03-25T14:09:38;2.50;;;2.10;;
8046;SDS011;74083;42.516;23.358;2024-03-25T14:12:23;2.00;;;1.90;;
8046;SDS011;74083;42.516;23.358;2024-03-25T14:15:07;2.07;;;1.97;;
8046;SDS011;74083;42.516;23.358;2024-03-25T14:17:54;2.20;;;2.10;;
8046;SDS011;74083;42.516;23.358;2024-03-25T14:20:38;2.00;;;1.90;;
8046;SDS011;74083;42.516;23.358;2024-03-25T14:23:23;2.47;;;2.27;;
8046;SDS011;74083;42.516;23.358;2024-03-25T14:26:07;2.10;;;2.00;;
8046;SDS011;74083;42.516;23.358;2024-03-25T14:28:52;2.00;;;1.90;;
8046;SDS011;74083;42.516;23.358;2024-03-25T14:31:36;1.90;;;1.80;;
8046;SDS011;74083;42.516;23.358;2024-03-25T14:34:22;2.50;;;2.30;;
8046;SDS011;74083;42.516;23.358;2024-03-25T14:37:07;2.10;;;2.00;;
8046;SDS011;74083;42.516;23.358;2024-03-25T14:39:51;2.10;;;2.00;;
8046;SDS011;74083;42.516;23.358;2024-03-25T14:42:35;2.10;;;2.00;;
8046;SDS011;74083;42.516;23.358;2024-03-25T14:45:20;2.20;;;2.10;;
8046;SDS011;74083;42.516;23.358;2024-03-25T14:48:05;2.00;;;1.90;;
8046;SDS011;74083;42.516;23.358;2024-03-25T14:50:51;2.40;;;2.20;;
8046;SDS011;74083;42.516;23.358;2024-03-25T14:53:36;2.33;;;2.13;;
8046;SDS011;74083;42.516;23.358;2024-03-25T14:56:20;2.17;;;2.07;;
8046;SDS011;74083;42.516;23.358;2024-03-25T14:59:05;2.13;;;2.03;;
8046;SDS011;74083;42.516;23.358;2024-03-25T15:01:49;2.20;;;2.10;;
8046;SDS011;74083;42.516;23.358;2024-03-25T15:04:34;2.00;;;1.90;;
8046;SDS011;74083;42.516;23.358;2024-03-25T15:07:19;2.20;;;2.10;;
8046;SDS011;74083;42.516;23.358;2024-03-25T15:10:04;1.97;;;1.87;;
8046;SDS011;74083;42.516;23.358;2024-03-25T15:12:50;2.00;;;1.90;;
8046;SDS011;74083;42.516;23.358;2024-03-25T15:15:38;1.87;;;1.77;;
8046;SDS011;74083;42.516;23.358;2024-03-25T15:18:23;3.97;;;1.90;;
8046;SDS011;74083;42.516;23.358;2024-03-25T15:21:08;2.00;;;1.90;;
8046;SDS011;74083;42.516;23.358;2024-03-25T15:23:53;2.30;;;1.87;;
8046;SDS011;74083;42.516;23.358;2024-03-25T15:26:38;1.93;;;1.83;;
8046;SDS011;74083;42.516;23.358;2024-03-25T15:29:22;2.70;;;2.10;;
8046;SDS011;74083;42.516;23.358;2024-03-25T15:32:07;1.97;;;1.87;;
8046;SDS011;74083;42.516;23.358;2024-03-25T15:34:51;2.40;;;2.13;;
8046;SDS011;74083;42.516;23.358;2024-03-25T15:37:36;2.30;;;2.10;;
8046;SDS011;74083;42.516;23.358;2024-03-25T15:40:21;4.47;;;2.50;;
8046;SDS011;74083;42.516;23.358;2024-03-25T15:43:06;2.37;;;2.27;;
8046;SDS011;74083;42.516;23.358;2024-03-25T15:45:54;2.27;;;2.10;;
8046;SDS011;74083;42.516;23.358;2024-03-25T15:48:39;2.60;;;2.40;;
8046;SDS011;74083;42.516;23.358;2024-03-25T15:51:23;2.60;;;2.40;;
8046;SDS011;74083;42.516;23.358;2024-03-25T15:54:08;2.37;;;2.20;;
8046;SDS011;74083;42.516;23.358;2024-03-25T15:56:54;2.27;;;2.10;;
8046;SDS011;74083;42.516;23.358;2024-03-25T15:59:38;3.37;;;2.20;;
8046;SDS011;74083;42.516;23.358;2024-03-25T16:02:23;2.40;;;2.20;;
8046;SDS011;74083;42.516;23.358;2024-03-25T16:05:08;2.10;;;2.00;;
8046;SDS011;74083;42.516;23.358;2024-03-25T16:07:53;2.20;;;2.00;;
8046;SDS011;74083;42.516;23.358;2024-03-25T16:10:38;2.20;;;2.10;;
8046;SDS011;74083;42.516;23.358;2024-03-25T16:13:24;2.23;;;2.13;;
8046;SDS011;74083;42.516;23.358;2024-03-25T16:16:09;2.10;;;2.00;;
8046;SDS011;74083;42.516;23.358;2024-03-25T16:18:54;2.10;;;1.90;;
8046;SDS011;74083;42.516;23.358;2024-03-25T16:21:38;1.90;;;1.80;;
8046;SDS011;74083;42.516;23.358;2024-03-25T16:24:23;2.23;;;2.03;;
8046;SDS011;74083;42.516;23.358;2024-03-25T16:27:07;2.10;;;2.00;;
8046;SDS011;74083;42.516;23.358;2024-03-25T16:29:53;2.13;;;1.80;;
8046;SDS011;74083;42.516;23.358;2024-03-25T16:32:38;2.50;;;2.30;;
8046;SDS011;74083;42.516;23.358;2024-03-25T16:35:23;2.10;;;2.00;;
8046;SDS011;74083;42.516;23.358;2024-03-25T16:38:07;2.30;;;2.10;;